Terminal Aerodrome Forecast
Issued by NWS

Home | Current Version | Previous Version | Text Only | Print | Product List | Glossary Off
Versions: 1 2 3 4 5 6 7 8 9 10 11 12 13 14 15 16 17 18 19

346
FTUS43 KGRB 280520
TAFATW
TAF
KATW 280520Z 2806/2906 06016G24KT P6SM SCT090 OVC150
     FM281000 04011G17KT P6SM BKN080 OVC100
     FM281600 06012G18KT P6SM SCT060 OVC090
     FM290000 05008KT P6SM SCT060 OVC080=

USA.gov is the U.S. government's official web portal to all federal, state and local government web resources and services.